sensor_id;sensor_type;location;lat;lon;timestamp;pressure;altitude;pressure_sealevel;temperature;humidity
13800;BME280;6971;50.028;9.258;2023-09-08T00:03:41;99700.19;;;14.17;100.00
13800;BME280;6971;50.028;9.258;2023-09-08T00:08:41;99693.06;;;14.04;100.00
13800;BME280;6971;50.028;9.258;2023-09-08T00:13:43;99700.28;;;13.88;100.00
13800;BME280;6971;50.028;9.258;2023-09-08T00:18:43;99702.94;;;13.88;100.00
13800;BME280;6971;50.028;9.258;2023-09-08T00:23:44;99702.25;;;13.84;100.00
13800;BME280;6971;50.028;9.258;2023-09-08T00:28:44;99697.28;;;13.79;100.00
13800;BME280;6971;50.028;9.258;2023-09-08T00:33:44;99706.91;;;13.80;100.00
13800;BME280;6971;50.028;9.258;2023-09-08T00:38:45;99699.66;;;13.69;100.00
13800;BME280;6971;50.028;9.258;2023-09-08T00:43:45;99700.22;;;13.60;100.00
13800;BME280;6971;50.028;9.258;2023-09-08T00:48:45;99699.38;;;13.60;100.00
13800;BME280;6971;50.028;9.258;2023-09-08T00:53:46;99694.94;;;13.60;100.00
13800;BME280;6971;50.028;9.258;2023-09-08T00:58:46;99689.63;;;13.60;100.00
13800;BME280;6971;50.028;9.258;2023-09-08T01:03:46;99684.72;;;13.54;100.00
13800;BME280;6971;50.028;9.258;2023-09-08T01:08:47;99690.03;;;13.54;100.00
13800;BME280;6971;50.028;9.258;2023-09-08T01:13:48;99686.50;;;13.39;100.00
13800;BME280;6971;50.028;9.258;2023-09-08T01:18:49;99686.03;;;13.47;100.00
13800;BME280;6971;50.028;9.258;2023-09-08T01:25:01;99682.34;;;13.35;100.00
13800;BME280;6971;50.028;9.258;2023-09-08T01:29:26;99690.75;;;13.41;100.00
13800;BME280;6971;50.028;9.258;2023-09-08T01:34:28;99683.94;;;13.37;100.00
13800;BME280;6971;50.028;9.258;2023-09-08T01:39:29;99693.59;;;13.38;100.00
13800;BME280;6971;50.028;9.258;2023-09-08T01:44:29;99689.16;;;13.39;100.00
13800;BME280;6971;50.028;9.258;2023-09-08T01:49:30;99681.84;;;13.42;100.00
13800;BME280;6971;50.028;9.258;2023-09-08T01:54:31;99678.19;;;13.30;100.00
13800;BME280;6971;50.028;9.258;2023-09-08T01:59:32;99671.66;;;13.36;100.00
13800;BME280;6971;50.028;9.258;2023-09-08T02:04:32;99669.19;;;13.33;100.00
13800;BME280;6971;50.028;9.258;2023-09-08T02:09:34;99677.53;;;13.41;100.00
13800;BME280;6971;50.028;9.258;2023-09-08T02:14:35;99670.06;;;13.34;100.00
13800;BME280;6971;50.028;9.258;2023-09-08T02:19:35;99669.19;;;13.33;100.00
13800;BME280;6971;50.028;9.258;2023-09-08T02:24:36;99675.06;;;13.38;100.00
13800;BME280;6971;50.028;9.258;2023-09-08T02:29:36;99680.19;;;13.27;100.00
13800;BME280;6971;50.028;9.258;2023-09-08T02:34:36;99669.84;;;13.22;100.00
13800;BME280;6971;50.028;9.258;2023-09-08T02:39:37;99664.09;;;13.15;100.00
13800;BME280;6971;50.028;9.258;2023-09-08T02:44:37;99666.19;;;13.10;100.00
13800;BME280;6971;50.028;9.258;2023-09-08T02:49:38;99658.22;;;13.10;100.00
13800;BME280;6971;50.028;9.258;2023-09-08T02:54:38;99666.81;;;13.14;100.00
13800;BME280;6971;50.028;9.258;2023-09-08T02:59:39;99673.81;;;13.15;100.00
13800;BME280;6971;50.028;9.258;2023-09-08T03:04:40;99680.84;;;13.16;100.00
13800;BME280;6971;50.028;9.258;2023-09-08T03:09:40;99678.28;;;13.14;100.00
13800;BME280;6971;50.028;9.258;2023-09-08T03:14:40;99678.38;;;13.13;100.00
13800;BME280;6971;50.028;9.258;2023-09-08T03:19:45;99677.03;;;13.05;100.00
13800;BME280;6971;50.028;9.258;2023-09-08T03:24:45;99668.44;;;13.02;100.00
13800;BME280;6971;50.028;9.258;2023-09-08T03:29:45;99679.00;;;13.16;100.00
13800;BME280;6971;50.028;9.258;2023-09-08T03:34:46;99670.13;;;13.03;100.00
13800;BME280;6971;50.028;9.258;2023-09-08T03:39:46;99679.28;;;12.97;100.00
13800;BME280;6971;50.028;9.258;2023-09-08T03:44:46;99673.72;;;12.87;100.00
13800;BME280;6971;50.028;9.258;2023-09-08T03:49:47;99671.72;;;12.91;100.00
13800;BME280;6971;50.028;9.258;2023-09-08T03:54:47;99665.31;;;12.95;100.00
13800;BME280;6971;50.028;9.258;2023-09-08T03:59:47;99665.84;;;12.86;100.00
13800;BME280;6971;50.028;9.258;2023-09-08T04:04:48;99655.91;;;12.75;100.00
13800;BME280;6971;50.028;9.258;2023-09-08T04:09:48;99663.47;;;12.81;100.00
13800;BME280;6971;50.028;9.258;2023-09-08T04:14:49;99664.25;;;12.83;100.00
13800;BME280;6971;50.028;9.258;2023-09-08T04:19:49;99666.66;;;12.72;100.00
13800;BME280;6971;50.028;9.258;2023-09-08T04:24:49;99672.63;;;12.75;100.00
13800;BME280;6971;50.028;9.258;2023-09-08T04:29:50;99673.31;;;12.79;100.00
13800;BME280;6971;50.028;9.258;2023-09-08T04:34:50;99679.91;;;12.72;100.00
13800;BME280;6971;50.028;9.258;2023-09-08T04:39:51;99686.44;;;12.81;100.00
13800;BME280;6971;50.028;9.258;2023-09-08T04:44:51;99685.75;;;12.77;100.00
13800;BME280;6971;50.028;9.258;2023-09-08T04:49:51;99689.94;;;12.81;100.00
13800;BME280;6971;50.028;9.258;2023-09-08T04:54:52;99700.59;;;12.79;100.00
13800;BME280;6971;50.028;9.258;2023-09-08T04:59:52;99702.19;;;12.82;100.00
13800;BME280;6971;50.028;9.258;2023-09-08T05:04:52;99702.84;;;12.71;100.00
13800;BME280;6971;50.028;9.258;2023-09-08T05:09:53;99698.00;;;12.63;100.00
13800;BME280;6971;50.028;9.258;2023-09-08T05:14:53;99706.13;;;12.60;100.00
13800;BME280;6971;50.028;9.258;2023-09-08T05:19:56;99722.28;;;12.70;100.00
13800;BME280;6971;50.028;9.258;2023-09-08T05:24:57;99708.97;;;12.72;100.00
13800;BME280;6971;50.028;9.258;2023-09-08T05:29:57;99716.34;;;12.66;100.00
13800;BME280;6971;50.028;9.258;2023-09-08T05:34:59;99721.09;;;12.76;100.00
13800;BME280;6971;50.028;9.258;2023-09-08T05:39:59;99729.09;;;12.74;100.00
13800;BME280;6971;50.028;9.258;2023-09-08T05:44:59;99726.25;;;12.63;100.00
13800;BME280;6971;50.028;9.258;2023-09-08T05:50:00;99727.91;;;12.80;100.00
13800;BME280;6971;50.028;9.258;2023-09-08T05:55:00;99732.44;;;12.78;100.00
13800;BME280;6971;50.028;9.258;2023-09-08T06:00:02;99739.34;;;12.81;100.00
13800;BME280;6971;50.028;9.258;2023-09-08T06:05:03;99731.50;;;12.79;100.00
13800;BME280;6971;50.028;9.258;2023-09-08T06:10:04;99727.72;;;12.83;100.00
13800;BME280;6971;50.028;9.258;2023-09-08T06:15:05;99732.81;;;12.86;100.00
13800;BME280;6971;50.028;9.258;2023-09-08T06:20:06;99742.28;;;12.90;100.00
13800;BME280;6971;50.028;9.258;2023-09-08T06:25:07;99737.59;;;12.96;100.00
13800;BME280;6971;50.028;9.258;2023-09-08T06:30:07;99738.06;;;13.02;100.00
13800;BME280;6971;50.028;9.258;2023-09-08T06:35:08;99734.78;;;13.13;100.00
13800;BME280;6971;50.028;9.258;2023-09-08T06:40:08;99739.69;;;13.19;100.00
13800;BME280;6971;50.028;9.258;2023-09-08T06:45:09;99740.66;;;13.33;100.00
13800;BME280;6971;50.028;9.258;2023-09-08T06:50:09;99734.16;;;13.39;100.00
13800;BME280;6971;50.028;9.258;2023-09-08T06:55:10;99744.44;;;13.43;100.00
13800;BME280;6971;50.028;9.258;2023-09-08T07:00:11;99741.19;;;13.69;100.00
13800;BME280;6971;50.028;9.258;2023-09-08T07:05:12;99744.19;;;13.77;100.00
13800;BME280;6971;50.028;9.258;2023-09-08T07:10:12;99740.69;;;13.91;100.00
13800;BME280;6971;50.028;9.258;2023-09-08T07:15:13;99742.16;;;14.10;100.00
13800;BME280;6971;50.028;9.258;2023-09-08T07:20:14;99741.72;;;14.31;100.00
13800;BME280;6971;50.028;9.258;2023-09-08T07:25:14;99734.50;;;14.60;100.00
13800;BME280;6971;50.028;9.258;2023-09-08T07:30:14;99721.78;;;14.80;100.00
13800;BME280;6971;50.028;9.258;2023-09-08T07:35:15;99730.81;;;15.04;100.00
13800;BME280;6971;50.028;9.258;2023-09-08T07:40:16;99733.47;;;15.30;100.00
13800;BME280;6971;50.028;9.258;2023-09-08T07:45:17;99727.00;;;15.60;100.00
13800;BME280;6971;50.028;9.258;2023-09-08T07:50:20;99725.78;;;15.90;100.00
13800;BME280;6971;50.028;9.258;2023-09-08T07:55:21;99723.38;;;16.24;100.00
13800;BME280;6971;50.028;9.258;2023-09-08T08:00:27;99722.19;;;16.53;100.00
13800;BME280;6971;50.028;9.258;2023-09-08T08:05:27;99711.75;;;16.86;100.00
13800;BME280;6971;50.028;9.258;2023-09-08T08:10:28;99729.13;;;18.40;100.00
13800;BME280;6971;50.028;9.258;2023-09-08T08:15:39;99731.34;;;19.10;100.00
13800;BME280;6971;50.028;9.258;2023-09-08T08:20:39;99731.19;;;19.33;100.00
13800;BME280;6971;50.028;9.258;2023-09-08T08:25:40;99738.69;;;20.12;100.00
13800;BME280;6971;50.028;9.258;2023-09-08T08:30:40;99739.84;;;21.65;96.48
13800;BME280;6971;50.028;9.258;2023-09-08T08:35:40;99744.13;;;22.61;83.45
13800;BME280;6971;50.028;9.258;2023-09-08T08:40:41;99744.03;;;23.60;75.16
13800;BME280;6971;50.028;9.258;2023-09-08T08:45:42;99742.28;;;23.85;73.62
13800;BME280;6971;50.028;9.258;2023-09-08T08:50:43;99731.50;;;24.20;71.09
13800;BME280;6971;50.028;9.258;2023-09-08T08:55:45;99746.22;;;24.76;66.60
13800;BME280;6971;50.028;9.258;2023-09-08T09:00:46;99738.13;;;24.84;70.21
13800;BME280;6971;50.028;9.258;2023-09-08T09:05:47;99742.16;;;25.22;71.33
13800;BME280;6971;50.028;9.258;2023-09-08T09:10:47;99737.72;;;25.46;65.90
13800;BME280;6971;50.028;9.258;2023-09-08T09:15:49;99744.84;;;26.50;60.56
13800;BME280;6971;50.028;9.258;2023-09-08T09:20:54;99735.78;;;25.71;66.61
13800;BME280;6971;50.028;9.258;2023-09-08T09:25:55;99740.75;;;26.54;59.15
13800;BME280;6971;50.028;9.258;2023-09-08T09:30:55;99741.34;;;26.88;56.71
13800;BME280;6971;50.028;9.258;2023-09-08T09:35:56;99737.63;;;26.89;55.06
13800;BME280;6971;50.028;9.258;2023-09-08T09:40:57;99749.47;;;27.42;54.70
13800;BME280;6971;50.028;9.258;2023-09-08T09:45:58;99739.78;;;27.47;52.60
13800;BME280;6971;50.028;9.258;2023-09-08T09:50:58;99733.63;;;27.84;53.00
13800;BME280;6971;50.028;9.258;2023-09-08T09:55:59;99728.09;;;27.47;52.24
13800;BME280;6971;50.028;9.258;2023-09-08T10:01:00;99727.47;;;28.12;49.09
13800;BME280;6971;50.028;9.258;2023-09-08T10:06:02;99729.03;;;28.58;49.71
13800;BME280;6971;50.028;9.258;2023-09-08T10:11:06;99729.50;;;28.62;46.59
13800;BME280;6971;50.028;9.258;2023-09-08T10:16:08;99726.13;;;28.60;46.09
13800;BME280;6971;50.028;9.258;2023-09-08T10:21:09;99717.84;;;27.27;49.00
13800;BME280;6971;50.028;9.258;2023-09-08T10:26:11;99710.84;;;28.30;48.33
13800;BME280;6971;50.028;9.258;2023-09-08T10:31:12;99711.59;;;28.67;47.64
13800;BME280;6971;50.028;9.258;2023-09-08T10:36:13;99710.13;;;27.69;50.81
13800;BME280;6971;50.028;9.258;2023-09-08T10:46:28;99704.25;;;27.35;51.79
13800;BME280;6971;50.028;9.258;2023-09-08T10:51:29;99704.63;;;27.99;51.40
13800;BME280;6971;50.028;9.258;2023-09-08T10:56:54;99706.06;;;29.04;47.27
13800;BME280;6971;50.028;9.258;2023-09-08T11:01:55;99704.16;;;28.98;49.02
13800;BME280;6971;50.028;9.258;2023-09-08T11:06:58;99702.09;;;28.78;49.03
13800;BME280;6971;50.028;9.258;2023-09-08T11:12:01;99706.81;;;29.55;49.12
13800;BME280;6971;50.028;9.258;2023-09-08T11:17:03;99702.66;;;29.60;47.70
13800;BME280;6971;50.028;9.258;2023-09-08T11:22:03;99712.41;;;29.96;45.76
13800;BME280;6971;50.028;9.258;2023-09-08T11:27:04;99694.28;;;29.26;47.60
13800;BME280;6971;50.028;9.258;2023-09-08T11:32:08;99698.47;;;29.64;47.64
13800;BME280;6971;50.028;9.258;2023-09-08T11:37:13;99696.16;;;29.18;48.33
13800;BME280;6971;50.028;9.258;2023-09-08T11:42:17;99692.56;;;29.95;46.15
13800;BME280;6971;50.028;9.258;2023-09-08T11:47:17;99687.13;;;29.95;49.55
13800;BME280;6971;50.028;9.258;2023-09-08T11:52:18;99682.44;;;28.70;46.75
13800;BME280;6971;50.028;9.258;2023-09-08T11:57:19;99680.63;;;29.90;46.78
13800;BME280;6971;50.028;9.258;2023-09-08T12:02:19;99680.88;;;30.02;45.81
13800;BME280;6971;50.028;9.258;2023-09-08T12:07:20;99678.44;;;30.14;45.71
13800;BME280;6971;50.028;9.258;2023-09-08T12:12:20;99677.19;;;30.37;44.51
13800;BME280;6971;50.028;9.258;2023-09-08T12:17:21;99674.91;;;30.74;42.97
13800;BME280;6971;50.028;9.258;2023-09-08T12:22:24;99669.72;;;29.76;44.62
13800;BME280;6971;50.028;9.258;2023-09-08T12:27:24;99665.91;;;30.33;46.62
13800;BME280;6971;50.028;9.258;2023-09-08T12:32:29;99671.16;;;30.95;43.50
13800;BME280;6971;50.028;9.258;2023-09-08T12:37:29;99663.41;;;29.55;44.74
13800;BME280;6971;50.028;9.258;2023-09-08T12:42:31;99665.91;;;30.40;44.63
13800;BME280;6971;50.028;9.258;2023-09-08T12:47:31;99664.88;;;30.54;44.01
13800;BME280;6971;50.028;9.258;2023-09-08T12:52:32;99660.03;;;30.97;42.49
13800;BME280;6971;50.028;9.258;2023-09-08T12:57:32;99654.19;;;30.39;43.93
13800;BME280;6971;50.028;9.258;2023-09-08T13:02:33;99648.75;;;30.46;42.94
13800;BME280;6971;50.028;9.258;2023-09-08T13:07:34;99641.53;;;29.28;44.44
13800;BME280;6971;50.028;9.258;2023-09-08T13:12:34;99654.59;;;30.29;43.44
13800;BME280;6971;50.028;9.258;2023-09-08T13:17:34;99638.41;;;29.87;45.30
13800;BME280;6971;50.028;9.258;2023-09-08T13:22:35;99640.19;;;30.22;44.77
13800;BME280;6971;50.028;9.258;2023-09-08T13:27:35;99632.03;;;30.29;43.01
13800;BME280;6971;50.028;9.258;2023-09-08T13:32:36;99631.19;;;30.21;45.23
13800;BME280;6971;50.028;9.258;2023-09-08T13:37:36;99616.31;;;30.10;45.84
13800;BME280;6971;50.028;9.258;2023-09-08T13:42:38;99613.09;;;29.66;45.83
13800;BME280;6971;50.028;9.258;2023-09-08T13:47:38;99615.91;;;30.00;44.39
13800;BME280;6971;50.028;9.258;2023-09-08T13:52:38;99599.38;;;29.32;44.50
13800;BME280;6971;50.028;9.258;2023-09-08T13:57:39;99602.50;;;29.92;45.32
13800;BME280;6971;50.028;9.258;2023-09-08T14:02:39;99601.97;;;29.54;44.02
13800;BME280;6971;50.028;9.258;2023-09-08T14:07:40;99592.28;;;29.31;44.32
13800;BME280;6971;50.028;9.258;2023-09-08T14:12:40;99591.69;;;29.36;44.23
13800;BME280;6971;50.028;9.258;2023-09-08T14:17:40;99591.91;;;29.41;45.53
13800;BME280;6971;50.028;9.258;2023-09-08T14:22:41;99580.25;;;29.05;45.63
13800;BME280;6971;50.028;9.258;2023-09-08T14:27:41;99589.34;;;29.26;44.29
13800;BME280;6971;50.028;9.258;2023-09-08T14:32:41;99585.38;;;29.29;45.97
13800;BME280;6971;50.028;9.258;2023-09-08T14:37:42;99596.16;;;29.57;45.03
13800;BME280;6971;50.028;9.258;2023-09-08T14:42:42;99588.88;;;29.65;44.91
13800;BME280;6971;50.028;9.258;2023-09-08T14:47:42;99588.25;;;29.69;48.31
13800;BME280;6971;50.028;9.258;2023-09-08T14:52:43;99586.88;;;29.45;45.83
13800;BME280;6971;50.028;9.258;2023-09-08T14:57:43;99584.28;;;29.16;45.67
13800;BME280;6971;50.028;9.258;2023-09-08T15:02:44;99578.53;;;29.47;45.81
13800;BME280;6971;50.028;9.258;2023-09-08T15:07:45;99586.75;;;29.53;44.79
13800;BME280;6971;50.028;9.258;2023-09-08T15:12:45;99571.97;;;29.21;48.53
13800;BME280;6971;50.028;9.258;2023-09-08T15:17:46;99571.22;;;28.91;45.03
13800;BME280;6971;50.028;9.258;2023-09-08T15:22:46;99562.91;;;28.93;45.81
13800;BME280;6971;50.028;9.258;2023-09-08T15:27:46;99557.97;;;28.75;47.08
13800;BME280;6971;50.028;9.258;2023-09-08T15:32:47;99558.41;;;28.50;46.02
13800;BME280;6971;50.028;9.258;2023-09-08T15:37:48;99554.22;;;28.47;51.11
13800;BME280;6971;50.028;9.258;2023-09-08T15:42:48;99554.13;;;28.34;47.84
13800;BME280;6971;50.028;9.258;2023-09-08T15:47:50;99546.09;;;27.97;52.23
13800;BME280;6971;50.028;9.258;2023-09-08T15:52:50;99543.19;;;27.76;51.44
13800;BME280;6971;50.028;9.258;2023-09-08T15:57:51;99548.66;;;27.61;60.02
13800;BME280;6971;50.028;9.258;2023-09-08T16:02:51;99536.75;;;27.04;63.50
13800;BME280;6971;50.028;9.258;2023-09-08T16:07:52;99529.00;;;26.40;70.36
13800;BME280;6971;50.028;9.258;2023-09-08T16:12:52;99543.31;;;26.02;75.05
13800;BME280;6971;50.028;9.258;2023-09-08T16:17:56;99534.59;;;25.45;78.42
13800;BME280;6971;50.028;9.258;2023-09-08T16:23:00;99536.25;;;25.14;80.32
13800;BME280;6971;50.028;9.258;2023-09-08T16:28:00;99536.38;;;24.89;82.67
13800;BME280;6971;50.028;9.258;2023-09-08T16:33:01;99538.78;;;24.59;84.48
13800;BME280;6971;50.028;9.258;2023-09-08T16:38:01;99528.75;;;24.20;85.79
13800;BME280;6971;50.028;9.258;2023-09-08T16:43:02;99529.56;;;23.79;91.07
13800;BME280;6971;50.028;9.258;2023-09-08T16:48:04;99536.44;;;23.56;96.28
13800;BME280;6971;50.028;9.258;2023-09-08T16:53:04;99535.09;;;23.17;100.00
13800;BME280;6971;50.028;9.258;2023-09-08T16:58:05;99528.03;;;22.73;100.00
13800;BME280;6971;50.028;9.258;2023-09-08T17:03:05;99531.53;;;22.47;100.00
13800;BME280;6971;50.028;9.258;2023-09-08T17:08:05;99521.69;;;22.03;100.00
13800;BME280;6971;50.028;9.258;2023-09-08T17:13:06;99528.28;;;21.72;100.00
13800;BME280;6971;50.028;9.258;2023-09-08T17:18:06;99520.84;;;21.38;100.00
13800;BME280;6971;50.028;9.258;2023-09-08T17:23:06;99527.22;;;21.19;100.00
13800;BME280;6971;50.028;9.258;2023-09-08T17:28:07;99528.31;;;20.88;100.00
13800;BME280;6971;50.028;9.258;2023-09-08T17:33:08;99524.06;;;20.57;100.00
13800;BME280;6971;50.028;9.258;2023-09-08T17:38:08;99526.94;;;20.16;100.00
13800;BME280;6971;50.028;9.258;2023-09-08T17:43:08;99530.91;;;20.02;100.00
13800;BME280;6971;50.028;9.258;2023-09-08T17:48:09;99534.81;;;19.68;100.00
13800;BME280;6971;50.028;9.258;2023-09-08T17:53:09;99535.63;;;19.49;100.00
13800;BME280;6971;50.028;9.258;2023-09-08T17:58:10;99539.78;;;19.22;100.00
13800;BME280;6971;50.028;9.258;2023-09-08T18:03:10;99540.19;;;19.08;100.00
13800;BME280;6971;50.028;9.258;2023-09-08T18:08:10;99546.50;;;18.85;100.00
13800;BME280;6971;50.028;9.258;2023-09-08T18:13:12;99545.72;;;18.63;100.00
13800;BME280;6971;50.028;9.258;2023-09-08T18:18:12;99545.16;;;18.38;100.00
13800;BME280;6971;50.028;9.258;2023-09-08T18:23:12;99547.19;;;18.25;100.00
13800;BME280;6971;50.028;9.258;2023-09-08T18:28:16;99551.97;;;18.10;100.00
13800;BME280;6971;50.028;9.258;2023-09-08T18:33:16;99555.28;;;17.91;100.00
13800;BME280;6971;50.028;9.258;2023-09-08T18:38:17;99559.72;;;17.69;100.00
13800;BME280;6971;50.028;9.258;2023-09-08T18:43:17;99558.47;;;17.52;100.00
13800;BME280;6971;50.028;9.258;2023-09-08T18:48:18;99554.00;;;17.29;100.00
13800;BME280;6971;50.028;9.258;2023-09-08T18:53:18;99557.16;;;17.12;100.00
13800;BME280;6971;50.028;9.258;2023-09-08T18:58:19;99562.59;;;16.87;100.00
13800;BME280;6971;50.028;9.258;2023-09-08T19:03:19;99565.00;;;16.79;100.00
13800;BME280;6971;50.028;9.258;2023-09-08T19:08:19;99561.59;;;16.65;100.00
13800;BME280;6971;50.028;9.258;2023-09-08T19:13:20;99563.41;;;16.42;100.00
13800;BME280;6971;50.028;9.258;2023-09-08T19:18:20;99559.03;;;16.41;100.00
13800;BME280;6971;50.028;9.258;2023-09-08T19:23:20;99563.13;;;16.34;100.00
13800;BME280;6971;50.028;9.258;2023-09-08T19:28:21;99568.78;;;16.17;100.00
13800;BME280;6971;50.028;9.258;2023-09-08T19:33:21;99566.38;;;16.01;100.00
13800;BME280;6971;50.028;9.258;2023-09-08T19:38:21;99563.16;;;15.85;100.00
13800;BME280;6971;50.028;9.258;2023-09-08T19:43:22;99565.53;;;15.76;100.00
13800;BME280;6971;50.028;9.258;2023-09-08T19:48:22;99561.03;;;15.65;100.00
13800;BME280;6971;50.028;9.258;2023-09-08T19:53:22;99567.13;;;15.55;100.00
13800;BME280;6971;50.028;9.258;2023-09-08T19:58:25;99558.44;;;15.39;100.00
13800;BME280;6971;50.028;9.258;2023-09-08T20:03:25;99561.16;;;15.26;100.00
13800;BME280;6971;50.028;9.258;2023-09-08T20:08:26;99564.69;;;15.14;100.00
13800;BME280;6971;50.028;9.258;2023-09-08T20:13:26;99560.84;;;15.05;100.00
13800;BME280;6971;50.028;9.258;2023-09-08T20:18:27;99564.69;;;15.01;100.00
13800;BME280;6971;50.028;9.258;2023-09-08T20:23:27;99556.31;;;14.94;100.00
13800;BME280;6971;50.028;9.258;2023-09-08T20:28:28;99553.75;;;14.93;100.00
13800;BME280;6971;50.028;9.258;2023-09-08T20:33:28;99560.25;;;14.88;100.00
13800;BME280;6971;50.028;9.258;2023-09-08T20:38:29;99566.50;;;14.74;100.00
13800;BME280;6971;50.028;9.258;2023-09-08T20:43:29;99565.09;;;14.69;100.00
13800;BME280;6971;50.028;9.258;2023-09-08T20:48:34;99564.88;;;14.59;100.00
13800;BME280;6971;50.028;9.258;2023-09-08T20:53:36;99565.50;;;14.49;100.00
13800;BME280;6971;50.028;9.258;2023-09-08T20:58:38;99562.53;;;14.41;100.00
13800;BME280;6971;50.028;9.258;2023-09-08T21:03:38;99557.03;;;14.31;100.00
13800;BME280;6971;50.028;9.258;2023-09-08T21:08:38;99561.91;;;14.25;100.00
13800;BME280;6971;50.028;9.258;2023-09-08T21:13:39;99563.16;;;14.19;100.00
13800;BME280;6971;50.028;9.258;2023-09-08T21:18:39;99557.53;;;14.23;100.00
13800;BME280;6971;50.028;9.258;2023-09-08T21:23:40;99559.53;;;14.20;100.00
13800;BME280;6971;50.028;9.258;2023-09-08T21:28:40;99561.41;;;14.05;100.00
13800;BME280;6971;50.028;9.258;2023-09-08T21:33:41;99549.31;;;14.01;100.00
13800;BME280;6971;50.028;9.258;2023-09-08T21:38:41;99557.38;;;13.99;100.00
13800;BME280;6971;50.028;9.258;2023-09-08T21:43:42;99552.94;;;14.00;100.00
13800;BME280;6971;50.028;9.258;2023-09-08T21:48:42;99552.91;;;13.87;100.00
13800;BME280;6971;50.028;9.258;2023-09-08T21:53:42;99547.34;;;13.77;100.00
13800;BME280;6971;50.028;9.258;2023-09-08T21:58:43;99541.88;;;13.80;100.00
13800;BME280;6971;50.028;9.258;2023-09-08T22:03:43;99543.00;;;13.76;100.00
13800;BME280;6971;50.028;9.258;2023-09-08T22:08:46;99535.44;;;13.69;100.00
13800;BME280;6971;50.028;9.258;2023-09-08T22:13:47;99532.44;;;13.61;100.00
13800;BME280;6971;50.028;9.258;2023-09-08T22:18:47;99530.03;;;13.58;100.00
13800;BME280;6971;50.028;9.258;2023-09-08T22:23:49;99530.22;;;13.55;100.00
13800;BME280;6971;50.028;9.258;2023-09-08T22:28:50;99539.50;;;13.48;100.00
13800;BME280;6971;50.028;9.258;2023-09-08T22:33:51;99538.63;;;13.47;100.00
13800;BME280;6971;50.028;9.258;2023-09-08T22:38:51;99543.47;;;13.40;100.00
13800;BME280;6971;50.028;9.258;2023-09-08T22:43:52;99539.00;;;13.41;100.00
13800;BME280;6971;50.028;9.258;2023-09-08T22:48:52;99537.03;;;13.44;100.00
13800;BME280;6971;50.028;9.258;2023-09-08T22:53:53;99532.31;;;13.35;100.00
13800;BME280;6971;50.028;9.258;2023-09-08T22:58:53;99531.75;;;13.30;100.00
13800;BME280;6971;50.028;9.258;2023-09-08T23:03:53;99531.00;;;13.28;100.00
13800;BME280;6971;50.028;9.258;2023-09-08T23:08:54;99530.66;;;13.19;100.00
13800;BME280;6971;50.028;9.258;2023-09-08T23:13:54;99531.59;;;13.18;100.00
13800;BME280;6971;50.028;9.258;2023-09-08T23:18:54;99537.16;;;13.14;100.00
13800;BME280;6971;50.028;9.258;2023-09-08T23:23:55;99537.47;;;13.09;100.00
13800;BME280;6971;50.028;9.258;2023-09-08T23:28:55;99534.25;;;13.04;100.00
13800;BME280;6971;50.028;9.258;2023-09-08T23:33:55;99532.66;;;13.01;100.00
13800;BME280;6971;50.028;9.258;2023-09-08T23:38:56;99536.81;;;13.05;100.00
13800;BME280;6971;50.028;9.258;2023-09-08T23:43:56;99526.91;;;13.09;100.00
13800;BME280;6971;50.028;9.258;2023-09-08T23:48:56;99530.59;;;12.92;100.00
13800;BME280;6971;50.028;9.258;2023-09-08T23:53:57;99528.25;;;12.87;100.00
13800;BME280;6971;50.028;9.258;2023-09-08T23:58:57;99529.56;;;12.80;100.00
